createdAt,value
2022-10-11T00:02:01.716Z,99177.20
2022-10-11T00:04:28.162Z,99178.00
2022-10-11T00:06:54.858Z,99172.80
2022-10-11T00:09:21.360Z,99177.60
2022-10-11T00:11:47.755Z,99177.00
2022-10-11T00:14:14.516Z,99175.40
2022-10-11T00:16:44.332Z,99179.80
2022-10-11T00:19:11.541Z,99176.80
2022-10-11T00:21:38.026Z,99178.40
2022-10-11T00:24:05.462Z,99174.20
2022-10-11T00:26:32.057Z,99174.40
2022-10-11T00:28:58.563Z,99174.40
2022-10-11T00:31:25.221Z,99173.20
2022-10-11T00:33:53.964Z,99172.00
2022-10-11T00:36:21.826Z,99167.60
2022-10-11T00:38:48.652Z,99173.00
2022-10-11T00:41:16.809Z,99177.20
2022-10-11T00:43:44.416Z,99173.40
2022-10-11T00:46:13.923Z,99173.60
2022-10-11T00:48:45.990Z,99175.80
2022-10-11T00:51:23.360Z,99173.00
2022-10-11T00:53:51.897Z,99172.20
2022-10-11T00:56:31.214Z,99171.40
2022-10-11T00:59:02.342Z,99171.60
2022-10-11T01:01:28.947Z,99174.40
2022-10-11T01:03:56.950Z,99173.20
2022-10-11T01:06:23.449Z,99163.20
2022-10-11T01:08:52.090Z,99161.60
2022-10-11T01:11:24.394Z,99159.80
2022-10-11T01:14:43.745Z,99155.60
2022-10-11T01:17:29.506Z,99156.40
2022-10-11T01:20:31.948Z,99156.80
2022-10-11T01:23:55.158Z,99154.60
2022-10-11T01:26:48.565Z,99157.60
2022-10-11T01:30:02.984Z,99155.80
2022-10-11T01:32:40.281Z,99158.20
2022-10-11T01:35:21.074Z,99160.80
2022-10-11T01:38:01.404Z,99160.80
2022-10-11T01:40:38.959Z,99160.00
2022-10-11T01:43:06.066Z,99161.60
2022-10-11T01:45:34.670Z,99164.60
2022-10-11T01:48:12.274Z,99161.80
2022-10-11T01:50:52.458Z,99158.60
2022-10-11T01:53:46.449Z,99156.40
2022-10-11T01:56:40.422Z,99159.00
2022-10-11T01:59:41.170Z,99157.60
2022-10-11T02:02:45.905Z,99160.40
2022-10-11T02:05:45.220Z,99157.80
2022-10-11T02:08:45.113Z,99159.40
2022-10-11T02:11:38.928Z,99159.80
2022-10-11T02:14:20.436Z,99161.80
2022-10-11T02:16:54.999Z,99158.80
2022-10-11T02:19:30.026Z,99155.80
2022-10-11T02:22:06.037Z,99157.40
2022-10-11T02:24:37.608Z,99156.60
2022-10-11T02:27:06.180Z,99159.40
2022-10-11T02:29:39.269Z,99156.00
2022-10-11T02:32:08.545Z,99153.80
2022-10-11T02:34:47.568Z,99155.20
2022-10-11T02:37:34.388Z,99152.80
2022-10-11T02:40:24.806Z,99152.40
2022-10-11T02:42:59.360Z,99154.20
2022-10-11T02:45:36.724Z,99157.60
2022-10-11T02:48:06.039Z,99154.00
2022-10-11T02:50:33.031Z,99155.60
2022-10-11T02:52:59.484Z,99158.20
2022-10-11T02:55:26.083Z,99160.60
2022-10-11T02:57:52.693Z,99161.60
2022-10-11T03:00:19.393Z,99168.80
2022-10-11T03:02:45.764Z,99173.20
2022-10-11T03:05:12.350Z,99171.60
2022-10-11T03:07:38.793Z,99169.20
2022-10-11T03:10:06.782Z,99175.80
2022-10-11T03:12:33.643Z,99174.80
2022-10-11T03:15:00.084Z,99182.80
2022-10-11T03:17:42.586Z,99188.40
2022-10-11T03:20:09.627Z,99194.80
2022-10-11T03:22:36.410Z,99187.80
2022-10-11T03:25:04.675Z,99188.80
2022-10-11T03:27:33.634Z,99188.00
2022-10-11T03:30:00.634Z,99187.40
2022-10-11T03:32:28.241Z,99195.40
2022-10-11T03:34:54.686Z,99197.20
2022-10-11T03:37:21.201Z,99202.40
2022-10-11T03:39:47.638Z,99200.80
2022-10-11T03:42:14.676Z,99201.20
2022-10-11T03:44:42.172Z,99206.00
2022-10-11T03:47:09.835Z,99208.80
2022-10-11T03:49:41.337Z,99202.60
2022-10-11T03:52:10.445Z,99214.40
2022-10-11T03:54:36.992Z,99222.00
2022-10-11T03:57:03.645Z,99217.40
2022-10-11T03:59:30.233Z,99219.00
2022-10-11T04:01:57.062Z,99219.00
2022-10-11T04:04:23.618Z,99231.80
2022-10-11T04:06:50.018Z,99239.40
2022-10-11T04:09:16.502Z,99240.40
2022-10-11T04:11:42.876Z,99242.20
2022-10-11T04:14:09.397Z,99243.80
2022-10-11T04:16:38.588Z,99247.60
2022-10-11T04:19:05.100Z,99245.60
2022-10-11T04:21:31.550Z,99246.80
2022-10-11T04:23:58.005Z,99246.80
2022-10-11T04:26:24.430Z,99247.80
2022-10-11T04:28:50.940Z,99252.20
2022-10-11T04:31:17.444Z,99254.00
2022-10-11T04:33:43.928Z,99259.40
2022-10-11T04:36:10.585Z,99253.60
2022-10-11T04:38:36.992Z,99257.00
2022-10-11T04:41:09.358Z,99260.80
2022-10-11T04:43:36.699Z,99264.80
2022-10-11T04:46:04.460Z,99264.80
2022-10-11T04:48:31.399Z,99264.80
2022-10-11T04:50:57.950Z,99264.40
2022-10-11T04:53:24.955Z,99269.40
2022-10-11T04:55:57.906Z,99266.40
2022-10-11T04:58:24.375Z,99265.20
2022-10-11T05:00:50.961Z,99260.80
2022-10-11T05:03:17.353Z,99262.40
2022-10-11T05:05:43.868Z,99269.20
2022-10-11T05:08:11.496Z,99276.40
2022-10-11T05:10:37.999Z,99279.20
2022-10-11T05:13:04.638Z,99281.00
2022-10-11T05:15:32.245Z,99285.20
2022-10-11T05:17:58.711Z,99288.00
2022-10-11T05:20:25.722Z,99294.60
2022-10-11T05:22:52.132Z,99295.00
2022-10-11T05:25:18.513Z,99295.80
2022-10-11T05:27:45.454Z,99294.40
2022-10-11T05:30:12.425Z,99302.80
2022-10-11T05:32:38.945Z,99309.00
2022-10-11T05:35:06.056Z,99308.20
2022-10-11T05:37:32.579Z,99313.60
2022-10-11T05:39:58.958Z,99317.80
2022-10-11T05:42:25.367Z,99321.00
2022-10-11T05:44:51.771Z,99319.40
2022-10-11T05:47:18.194Z,99323.80
2022-10-11T05:49:44.575Z,99330.80
2022-10-11T05:52:11.477Z,99325.60
2022-10-11T05:54:37.870Z,99332.60
2022-10-11T05:57:04.358Z,99335.20
2022-10-11T05:59:30.822Z,99338.40
2022-10-11T06:01:57.229Z,99351.80
2022-10-11T06:04:23.645Z,99352.60
2022-10-11T06:06:50.041Z,99359.20
2022-10-11T06:09:16.473Z,99363.60
2022-10-11T06:11:44.030Z,99370.40
2022-10-11T06:14:11.499Z,99375.80
2022-10-11T06:16:38.320Z,99374.60
2022-10-11T06:19:05.112Z,99371.00
2022-10-11T06:21:31.539Z,99380.20
2022-10-11T06:24:01.394Z,99385.00
2022-10-11T06:26:29.419Z,99389.20
2022-10-11T06:28:56.497Z,99392.60
2022-10-11T06:31:23.323Z,99399.20
2022-10-11T06:33:49.780Z,99401.00
2022-10-11T06:36:17.812Z,99408.60
2022-10-11T06:38:45.486Z,99410.20
2022-10-11T06:41:22.712Z,99413.00
2022-10-11T06:43:51.705Z,99418.20
2022-10-11T06:46:20.667Z,99422.40
2022-10-11T06:48:48.957Z,99424.40
2022-10-11T06:51:19.021Z,99422.40
2022-10-11T06:53:55.580Z,99435.40
2022-10-11T06:56:22.885Z,99434.80
2022-10-11T06:58:50.973Z,99439.80
2022-10-11T07:01:21.270Z,99441.20
2022-10-11T07:03:48.430Z,99447.80
2022-10-11T07:06:19.094Z,99454.00
2022-10-11T07:08:46.637Z,99455.60
2022-10-11T07:11:23.146Z,99455.00
2022-10-11T07:13:55.929Z,99458.00
2022-10-11T07:16:24.229Z,99466.60
2022-10-11T07:19:00.944Z,99465.40
2022-10-11T07:21:29.303Z,99467.60
2022-10-11T07:23:55.757Z,99469.40
2022-10-11T07:26:22.258Z,99472.80
2022-10-11T07:28:48.796Z,99472.80
2022-10-11T07:31:20.109Z,99477.40
2022-10-11T07:33:46.686Z,99480.60
2022-10-11T07:36:14.204Z,99486.80
2022-10-11T07:38:43.648Z,99490.20
2022-10-11T07:41:11.501Z,99497.00
2022-10-11T07:43:38.978Z,99491.60
2022-10-11T07:46:06.300Z,99497.80
2022-10-11T07:48:35.342Z,99499.80
2022-10-11T07:51:11.162Z,99501.20
2022-10-11T07:53:49.624Z,99509.20
2022-10-11T07:56:26.743Z,99514.80
2022-10-11T07:58:56.349Z,99514.80
2022-10-11T08:01:24.883Z,99518.60
2022-10-11T08:03:51.699Z,99520.80
2022-10-11T08:06:22.874Z,99524.80
2022-10-11T08:08:50.126Z,99534.40
2022-10-11T08:11:36.743Z,99533.80
2022-10-11T08:14:08.718Z,99542.20
2022-10-11T08:16:37.856Z,99546.40
2022-10-11T08:19:06.290Z,99542.00
2022-10-11T08:21:33.435Z,99555.40
2022-10-11T08:24:03.393Z,99551.40
2022-10-11T08:26:30.517Z,99551.60
2022-10-11T08:28:59.283Z,99557.40
2022-10-11T08:31:25.708Z,99555.00
2022-10-11T08:33:52.117Z,99559.60
2022-10-11T08:36:18.564Z,99555.60
2022-10-11T08:38:44.977Z,99561.00
2022-10-11T08:41:31.673Z,99552.40
2022-10-11T08:44:13.614Z,99559.80
2022-10-11T08:46:45.532Z,99557.20
2022-10-11T08:49:15.588Z,99557.80
2022-10-11T08:51:48.503Z,99553.80
2022-10-11T08:54:32.165Z,99556.20
2022-10-11T08:57:01.022Z,99560.00
2022-10-11T08:59:41.402Z,99563.20
2022-10-11T09:02:43.650Z,99566.00
2022-10-11T09:05:18.851Z,99568.60
2022-10-11T09:08:14.278Z,99572.40
2022-10-11T09:11:14.158Z,99572.40
2022-10-11T09:14:21.085Z,99580.20
2022-10-11T09:17:27.861Z,99575.20
2022-10-11T09:20:19.699Z,99585.80
2022-10-11T09:22:55.169Z,99584.00
2022-10-11T09:25:35.575Z,99588.00
2022-10-11T09:28:33.103Z,99585.00
2022-10-11T09:31:00.123Z,99589.40
2022-10-11T09:33:36.586Z,99586.20
2022-10-11T09:36:19.612Z,99591.40
2022-10-11T09:39:29.131Z,99590.40
2022-10-11T09:42:06.973Z,99593.00
2022-10-11T09:44:46.924Z,99595.20
2022-10-11T09:47:27.889Z,99602.00
2022-10-11T09:50:17.556Z,99604.40
2022-10-11T09:53:00.696Z,99604.20
2022-10-11T09:55:36.195Z,99600.20
2022-10-11T09:58:05.948Z,99598.40
2022-10-11T10:00:34.713Z,99602.80
2022-10-11T10:03:04.582Z,99604.80
2022-10-11T10:05:37.588Z,99602.20
2022-10-11T10:08:24.282Z,99605.60
2022-10-11T10:10:59.444Z,99609.40
2022-10-11T10:13:44.549Z,99598.80
2022-10-11T10:16:30.372Z,99601.60
2022-10-11T10:19:18.351Z,99600.20
2022-10-11T10:21:49.261Z,99598.00
2022-10-11T10:24:34.401Z,99599.60
2022-10-11T10:27:06.153Z,99611.60
2022-10-11T10:29:33.225Z,99618.40
2022-10-11T10:32:25.688Z,99621.40
2022-10-11T10:35:16.762Z,99620.60
2022-10-11T10:37:52.825Z,99621.00
2022-10-11T10:40:40.579Z,99623.20
2022-10-11T10:43:15.802Z,99622.80
2022-10-11T10:46:19.618Z,99625.00
2022-10-11T10:52:41.702Z,99625.00
2022-10-11T10:55:26.644Z,99621.20
2022-10-11T10:58:20.463Z,99624.60
2022-10-11T11:00:50.217Z,99621.40
2022-10-11T11:03:44.287Z,99628.60
2022-10-11T11:06:37.345Z,99638.40
2022-10-11T11:09:34.750Z,99640.80
2022-10-11T11:12:36.187Z,99635.80
2022-10-11T11:15:15.430Z,99641.40
2022-10-11T11:18:28.508Z,99648.60
2022-10-11T11:21:15.266Z,99653.40
2022-10-11T11:24:06.577Z,99660.20
2022-10-11T11:27:03.883Z,99661.80
2022-10-11T11:29:55.363Z,99654.40
2022-10-11T11:32:45.987Z,99649.80
2022-10-11T11:35:34.536Z,99648.60
2022-10-11T11:38:16.669Z,99649.20
2022-10-11T11:40:50.151Z,99653.40
2022-10-11T11:43:39.412Z,99653.20
2022-10-11T11:46:17.544Z,99649.20
2022-10-11T11:48:44.606Z,99651.80
2022-10-11T11:51:30.422Z,99648.00
2022-10-11T11:55:00.185Z,99650.00
2022-10-11T11:57:57.480Z,99655.40
2022-10-11T12:00:30.923Z,99658.00
2022-10-11T12:03:12.553Z,99655.40
2022-10-11T12:05:59.205Z,99657.20
2022-10-11T12:08:33.929Z,99656.60
2022-10-11T12:11:02.478Z,99665.00
2022-10-11T12:13:36.986Z,99666.20
2022-10-11T12:16:06.450Z,99659.20
2022-10-11T12:18:40.536Z,99660.40
2022-10-11T12:21:30.557Z,99657.40
2022-10-11T12:24:09.854Z,99660.60
2022-10-11T12:26:44.751Z,99665.20
2022-10-11T12:29:17.267Z,99662.20
2022-10-11T12:31:49.493Z,99661.40
2022-10-11T12:34:34.209Z,99666.00
2022-10-11T12:37:20.645Z,99661.40
2022-10-11T12:39:57.025Z,99668.20
2022-10-11T12:42:27.081Z,99666.80
2022-10-11T12:45:12.172Z,99665.00
2022-10-11T12:47:51.188Z,99668.40
2022-10-11T12:50:57.626Z,99678.20
2022-10-11T12:54:25.369Z,99675.20
2022-10-11T12:57:03.319Z,99680.20
2022-10-11T12:59:32.445Z,99680.40
2022-10-11T13:02:00.508Z,99677.60
2022-10-11T13:04:37.034Z,99681.00
2022-10-11T13:07:15.613Z,99683.60
2022-10-11T13:09:48.856Z,99685.20
2022-10-11T13:12:26.092Z,99681.40
2022-10-11T13:15:09.737Z,99681.20
2022-10-11T13:17:40.445Z,99685.40
2022-10-11T13:20:18.160Z,99682.60
2022-10-11T13:22:50.475Z,99695.20
2022-10-11T13:25:22.391Z,99695.80
2022-10-11T13:27:52.668Z,99695.40
2022-10-11T13:30:31.897Z,99693.60
2022-10-11T13:33:00.607Z,99690.60
2022-10-11T13:35:35.290Z,99695.20
2022-10-11T13:38:04.001Z,99694.80
2022-10-11T13:40:31.030Z,99696.00
2022-10-11T13:42:58.838Z,99694.60
2022-10-11T13:45:30.663Z,99694.40
2022-10-11T13:47:57.949Z,99700.80
2022-10-11T13:50:34.580Z,99703.80
2022-10-11T13:53:21.105Z,99702.60
2022-10-11T13:55:52.008Z,99707.20
2022-10-11T13:58:40.491Z,99702.40
2022-10-11T14:01:26.972Z,99705.40
2022-10-11T14:03:59.348Z,99703.40
2022-10-11T14:06:42.399Z,99703.80
2022-10-11T14:09:38.524Z,99708.80
2022-10-11T14:12:38.117Z,99709.00
2022-10-11T14:15:23.694Z,99708.60
2022-10-11T14:17:51.313Z,99706.60
2022-10-11T14:20:43.751Z,99710.00
2022-10-11T14:23:10.297Z,99709.20
2022-10-11T14:25:36.713Z,99708.60
2022-10-11T14:28:05.693Z,99705.60
2022-10-11T14:30:32.195Z,99705.80
2022-10-11T14:33:02.058Z,99708.20
2022-10-11T14:35:32.225Z,99709.60
2022-10-11T14:37:59.484Z,99710.40
2022-10-11T14:40:30.074Z,99709.80
2022-10-11T14:42:57.005Z,99710.80
2022-10-11T14:45:24.352Z,99711.20
2022-10-11T14:47:51.748Z,99710.20
2022-10-11T14:50:36.498Z,99714.60
2022-10-11T14:53:05.710Z,99714.20
2022-10-11T14:55:32.482Z,99717.80
2022-10-11T14:57:59.022Z,99709.40
2022-10-11T15:00:29.706Z,99716.40
2022-10-11T15:02:57.289Z,99717.20
2022-10-11T15:05:33.728Z,99720.80
2022-10-11T15:08:02.650Z,99721.80
2022-10-11T15:10:37.211Z,99727.80
2022-10-11T15:13:07.067Z,99729.20
2022-10-11T15:15:36.939Z,99728.60
2022-10-11T15:18:06.955Z,99727.40
2022-10-11T15:20:41.782Z,99729.40
2022-10-11T15:23:10.561Z,99728.60
2022-10-11T15:25:39.981Z,99727.40
2022-10-11T15:28:08.504Z,99730.20
2022-10-11T15:30:41.365Z,99732.60
2022-10-11T15:33:09.021Z,99736.40
2022-10-11T15:35:35.548Z,99737.20
2022-10-11T15:38:03.492Z,99738.80
2022-10-11T15:40:37.072Z,99745.60
2022-10-11T15:43:04.286Z,99745.20
2022-10-11T15:45:31.115Z,99747.40
2022-10-11T15:47:58.115Z,99753.40
2022-10-11T15:50:39.652Z,99755.20
2022-10-11T15:53:12.196Z,99759.60
2022-10-11T15:55:43.722Z,99766.40
2022-10-11T15:58:25.673Z,99773.40
2022-10-11T16:00:55.868Z,99769.60
2022-10-11T16:03:27.636Z,99771.40
2022-10-11T16:05:55.365Z,99769.40
2022-10-11T16:08:22.330Z,99770.40
2022-10-11T16:10:49.639Z,99775.00
2022-10-11T16:13:16.576Z,99776.00
2022-10-11T16:15:44.874Z,99776.60
2022-10-11T16:18:18.318Z,99778.20
2022-10-11T16:20:47.894Z,99784.20
2022-10-11T16:23:15.505Z,99785.60
2022-10-11T16:25:41.934Z,99787.20
2022-10-11T16:28:09.722Z,99788.40
2022-10-11T16:30:43.298Z,99790.60
2022-10-11T16:33:09.896Z,99794.60
2022-10-11T16:35:41.019Z,99793.80
2022-10-11T16:38:07.553Z,99791.20
2022-10-11T16:40:35.868Z,99793.80
2022-10-11T16:43:07.471Z,99795.40
2022-10-11T16:45:35.740Z,99794.80
2022-10-11T16:48:03.091Z,99795.00
2022-10-11T16:50:29.545Z,99794.20
2022-10-11T16:52:57.150Z,99801.40
2022-10-11T16:55:24.374Z,99797.80
2022-10-11T16:57:50.854Z,99806.80
2022-10-11T17:00:17.492Z,99805.60
2022-10-11T17:02:43.967Z,99805.80
2022-10-11T17:05:10.384Z,99812.40
2022-10-11T17:07:37.061Z,99811.80
2022-10-11T17:10:05.119Z,99813.80
2022-10-11T17:12:32.479Z,99812.80
2022-10-11T17:14:58.919Z,99813.20
2022-10-11T17:17:25.430Z,99823.20
2022-10-11T17:19:51.879Z,99819.00
2022-10-11T17:22:20.042Z,99819.40
2022-10-11T17:24:46.571Z,99817.80
2022-10-11T17:27:13.632Z,99823.60
2022-10-11T17:29:40.334Z,99824.20
2022-10-11T17:32:07.177Z,99827.40
2022-10-11T17:34:33.937Z,99827.80
2022-10-11T17:37:00.597Z,99828.40
2022-10-11T17:39:27.146Z,99828.80
2022-10-11T17:41:53.839Z,99824.20
2022-10-11T17:44:21.707Z,99827.00
2022-10-11T17:46:48.761Z,99823.80
2022-10-11T17:49:15.989Z,99825.60
2022-10-11T17:51:43.498Z,99829.20
2022-10-11T17:54:13.442Z,99833.40
2022-10-11T17:56:41.762Z,99829.40
2022-10-11T17:59:21.268Z,99830.00
2022-10-11T18:01:50.216Z,99831.60
2022-10-11T18:04:19.416Z,99834.20
2022-10-11T18:06:47.677Z,99835.40
2022-10-11T18:09:18.281Z,99829.60
2022-10-11T18:11:45.379Z,99831.60
2022-10-11T18:14:12.531Z,99832.00
2022-10-11T18:16:40.543Z,99831.00
2022-10-11T18:19:12.387Z,99835.80
2022-10-11T18:21:39.969Z,99840.60
2022-10-11T18:24:12.505Z,99836.40
2022-10-11T18:26:39.813Z,99836.80
2022-10-11T18:29:06.745Z,99839.20
2022-10-11T18:31:35.285Z,99835.60
2022-10-11T18:34:03.884Z,99843.00
2022-10-11T18:36:32.345Z,99838.40
2022-10-11T18:39:04.301Z,99839.20
2022-10-11T18:41:33.570Z,99836.20
2022-10-11T18:44:03.484Z,99844.00
2022-10-11T18:46:31.738Z,99848.60
2022-10-11T18:49:01.917Z,99849.00
2022-10-11T18:51:33.150Z,99844.60
2022-10-11T18:54:00.955Z,99850.00
2022-10-11T18:56:29.857Z,99845.00
2022-10-11T18:58:57.729Z,99846.20
2022-10-11T19:01:29.371Z,99841.80
2022-10-11T19:03:59.031Z,99848.60
2022-10-11T19:06:36.321Z,99848.80
2022-10-11T19:09:17.670Z,99852.60
2022-10-11T19:11:44.412Z,99843.20
2022-10-11T19:14:15.125Z,99846.20
2022-10-11T19:16:48.984Z,99844.60
2022-10-11T19:19:18.559Z,99839.40
2022-10-11T19:21:47.987Z,99845.00
2022-10-11T19:24:20.229Z,99843.20
2022-10-11T19:26:47.929Z,99846.60
2022-10-11T19:29:21.268Z,99851.00
2022-10-11T19:31:54.326Z,99849.80
2022-10-11T19:34:21.999Z,99853.00
2022-10-11T19:36:50.744Z,99854.40
2022-10-11T19:39:18.645Z,99852.00
2022-10-11T19:41:45.658Z,99851.40
2022-10-11T19:44:13.852Z,99857.20
2022-10-11T19:46:57.566Z,99855.00
2022-10-11T19:49:25.918Z,99856.20
2022-10-11T19:51:53.437Z,99854.60
2022-10-11T19:54:19.967Z,99853.40
2022-10-11T19:56:47.234Z,99858.80
2022-10-11T19:59:14.567Z,99855.40
2022-10-11T20:01:42.859Z,99859.80
2022-10-11T20:04:33.221Z,99864.80
2022-10-11T20:06:58.893Z,99870.60
2022-10-11T20:09:30.348Z,99864.00
2022-10-11T20:11:57.276Z,99866.20
2022-10-11T20:14:23.925Z,99864.80
2022-10-11T20:16:50.967Z,99868.80
2022-10-11T20:19:18.619Z,99872.20
2022-10-11T20:21:45.573Z,99869.60
2022-10-11T20:24:12.297Z,99872.60
2022-10-11T20:26:39.381Z,99869.60
2022-10-11T20:29:06.753Z,99876.00
2022-10-11T20:31:38.039Z,99871.40
2022-10-11T20:34:07.213Z,99872.80
2022-10-11T20:36:36.106Z,99874.40
2022-10-11T20:39:05.723Z,99877.20
2022-10-11T20:41:42.783Z,99878.80
2022-10-11T20:44:09.784Z,99868.80
2022-10-11T20:46:39.471Z,99878.40
2022-10-11T20:49:11.745Z,99877.40
2022-10-11T20:51:41.710Z,99884.00
2022-10-11T20:54:09.033Z,99877.40
2022-10-11T20:56:37.245Z,99879.00
2022-10-11T20:59:05.138Z,99878.80
2022-10-11T21:01:38.614Z,99882.20
2022-10-11T21:04:07.581Z,99886.20
2022-10-11T21:06:34.537Z,99880.80
2022-10-11T21:09:01.826Z,99879.00
2022-10-11T21:11:31.981Z,99886.80
2022-10-11T21:14:02.558Z,99890.80
2022-10-11T21:16:29.629Z,99894.80
2022-10-11T21:18:59.104Z,99892.00
2022-10-11T21:21:27.445Z,99889.40
2022-10-11T21:23:56.221Z,99888.60
2022-10-11T21:26:22.853Z,99888.20
2022-10-11T21:28:49.735Z,99886.80
2022-10-11T21:31:20.132Z,99891.00
2022-10-11T21:33:46.945Z,99891.60
2022-10-11T21:36:17.773Z,99889.00
2022-10-11T21:38:45.074Z,99891.00
2022-10-11T21:41:16.793Z,99891.00
2022-10-11T21:43:43.501Z,99893.00
2022-10-11T21:46:17.194Z,99895.40
2022-10-11T21:48:43.973Z,99902.00
2022-10-11T21:51:18.912Z,99900.40
2022-10-11T21:53:45.391Z,99900.40
2022-10-11T21:56:11.822Z,99894.20
2022-10-11T21:58:38.268Z,99901.40
2022-10-11T22:01:05.416Z,99903.40
2022-10-11T22:03:32.204Z,99905.60
2022-10-11T22:06:03.434Z,99907.00
2022-10-11T22:08:30.361Z,99905.00
2022-10-11T22:10:59.642Z,99905.80
2022-10-11T22:13:28.764Z,99905.20
2022-10-11T22:15:57.991Z,99907.20
2022-10-11T22:18:25.226Z,99901.40
2022-10-11T22:20:51.801Z,99904.00
2022-10-11T22:23:19.108Z,99906.00
2022-10-11T22:25:45.883Z,99906.40
2022-10-11T22:28:13.111Z,99898.60
2022-10-11T22:30:39.533Z,99904.80
2022-10-11T22:33:05.966Z,99907.00
2022-10-11T22:35:37.541Z,99907.20
2022-10-11T22:38:06.508Z,99909.40
2022-10-11T22:40:33.007Z,99907.60
2022-10-11T22:42:59.574Z,99908.80
2022-10-11T22:45:26.008Z,99905.20
2022-10-11T22:47:52.461Z,99903.80
2022-10-11T22:50:18.936Z,99907.80
2022-10-11T22:52:45.347Z,99911.80
2022-10-11T22:55:15.136Z,99909.80
2022-10-11T22:57:44.035Z,99906.80
2022-10-11T23:00:11.138Z,99904.00
2022-10-11T23:02:37.601Z,99903.20
2022-10-11T23:05:04.399Z,99904.00
2022-10-11T23:07:30.797Z,99909.00
2022-10-11T23:09:57.255Z,99904.40
2022-10-11T23:12:23.741Z,99904.80
2022-10-11T23:14:50.189Z,99907.60
2022-10-11T23:17:16.669Z,99909.00
2022-10-11T23:19:43.204Z,99908.80
2022-10-11T23:22:09.665Z,99917.00
2022-10-11T23:24:36.037Z,99913.00
2022-10-11T23:27:02.568Z,99914.60
2022-10-11T23:29:32.543Z,99915.20
2022-10-11T23:31:59.039Z,99914.80
2022-10-11T23:34:25.504Z,99914.20
2022-10-11T23:36:51.932Z,99912.00
2022-10-11T23:39:18.525Z,99910.80
2022-10-11T23:41:45.067Z,99907.00
2022-10-11T23:44:11.445Z,99907.60
2022-10-11T23:46:37.818Z,99910.80
2022-10-11T23:49:04.978Z,99914.60
2022-10-11T23:51:31.573Z,99908.80
2022-10-11T23:53:58.150Z,99909.20
2022-10-11T23:56:24.749Z,99911.40
2022-10-11T23:58:51.136Z,99910.60
